createdAt,value
2023-03-30T00:00:25.557Z,4.18
2023-03-30T00:02:54.131Z,4.82
2023-03-30T00:05:24.049Z,5.25
2023-03-30T00:07:51.107Z,4.20
2023-03-30T00:10:20.968Z,5.35
2023-03-30T00:12:47.610Z,6.00
2023-03-30T00:15:14.282Z,4.70
2023-03-30T00:17:41.485Z,4.65
2023-03-30T00:20:14.313Z,3.65
2023-03-30T00:22:41.320Z,5.93
2023-03-30T00:25:08.816Z,3.70
2023-03-30T00:27:36.188Z,4.88
2023-03-30T00:30:02.933Z,7.15
2023-03-30T00:32:29.656Z,7.15
2023-03-30T00:34:56.884Z,4.53
2023-03-30T00:37:23.860Z,6.45
2023-03-30T00:39:51.211Z,5.50
2023-03-30T00:42:18.038Z,5.15
2023-03-30T00:44:44.744Z,4.35
2023-03-30T00:47:11.787Z,4.25
2023-03-30T00:49:38.728Z,5.38
2023-03-30T00:52:05.731Z,5.38
2023-03-30T00:54:32.525Z,4.30
2023-03-30T00:56:59.324Z,5.63
2023-03-30T00:59:26.324Z,7.25
2023-03-30T01:01:53.156Z,4.38
2023-03-30T01:04:20.891Z,6.45
2023-03-30T01:06:47.615Z,6.32
2023-03-30T01:09:15.484Z,4.22
2023-03-30T01:11:42.107Z,6.15
2023-03-30T01:14:08.861Z,5.57
2023-03-30T01:16:35.651Z,5.55
2023-03-30T01:19:03.316Z,5.40
2023-03-30T01:21:30.171Z,4.80
2023-03-30T01:23:57.364Z,5.95
2023-03-30T01:26:24.708Z,7.03
2023-03-30T01:28:51.908Z,5.00
2023-03-30T01:31:18.721Z,7.30
2023-03-30T01:33:45.609Z,8.70
2023-03-30T01:36:12.443Z,5.47
2023-03-30T01:38:39.178Z,6.22
2023-03-30T01:41:06.632Z,6.15
2023-03-30T01:43:33.273Z,6.28
2023-03-30T01:46:01.515Z,5.07
2023-03-30T01:48:29.367Z,4.97
2023-03-30T01:50:56.710Z,6.70
2023-03-30T01:53:23.421Z,5.15
2023-03-30T01:55:50.425Z,7.85
2023-03-30T01:58:17.540Z,6.60
2023-03-30T02:00:44.248Z,6.55
2023-03-30T02:03:11.642Z,6.03
2023-03-30T02:05:38.404Z,6.57
2023-03-30T02:08:05.142Z,6.35
2023-03-30T02:10:31.866Z,7.95
2023-03-30T02:12:58.581Z,6.35
2023-03-30T02:15:25.260Z,6.70
2023-03-30T02:17:52.224Z,5.95
2023-03-30T02:20:19.098Z,6.13
2023-03-30T02:22:46.021Z,4.85
2023-03-30T02:25:12.820Z,6.05
2023-03-30T02:27:42.420Z,5.97
2023-03-30T02:30:09.385Z,5.63
2023-03-30T02:32:36.751Z,6.10
2023-03-30T02:35:03.472Z,6.15
2023-03-30T02:37:30.286Z,5.20
2023-03-30T02:39:56.986Z,4.55
2023-03-30T02:42:23.675Z,6.43
2023-03-30T02:44:50.326Z,6.97
2023-03-30T02:47:17.027Z,4.53
2023-03-30T02:49:43.683Z,6.10
2023-03-30T02:52:10.424Z,5.22
2023-03-30T02:54:37.187Z,6.45
2023-03-30T02:57:06.832Z,5.18
2023-03-30T02:59:33.592Z,4.40
2023-03-30T03:02:00.400Z,4.80
2023-03-30T03:04:28.525Z,5.40
2023-03-30T03:06:55.887Z,4.22
2023-03-30T03:09:25.068Z,5.20
2023-03-30T03:11:51.740Z,4.88
2023-03-30T03:14:18.561Z,6.40
2023-03-30T03:16:45.367Z,6.18
2023-03-30T03:19:12.198Z,5.07
2023-03-30T03:21:38.908Z,4.97
2023-03-30T03:24:06.878Z,5.47
2023-03-30T03:26:34.062Z,3.85
2023-03-30T03:29:00.836Z,5.55
2023-03-30T03:31:27.619Z,5.05
2023-03-30T03:33:54.308Z,3.30
2023-03-30T03:36:22.586Z,6.28
2023-03-30T03:38:49.284Z,4.18
2023-03-30T03:41:16.149Z,4.57
2023-03-30T03:43:42.815Z,3.50
2023-03-30T03:46:09.541Z,5.25
2023-03-30T03:48:36.172Z,3.88
2023-03-30T03:51:06.551Z,4.55
2023-03-30T03:53:33.302Z,4.07
2023-03-30T03:55:59.928Z,3.22
2023-03-30T03:58:26.524Z,3.95
2023-03-30T04:00:53.211Z,3.80
2023-03-30T04:03:19.951Z,3.95
2023-03-30T04:05:46.644Z,3.38
2023-03-30T04:08:13.334Z,3.67
2023-03-30T04:10:39.965Z,3.67
2023-03-30T04:13:06.570Z,4.13
2023-03-30T04:15:33.233Z,3.28
2023-03-30T04:18:00.017Z,4.03
2023-03-30T04:20:26.724Z,3.97
2023-03-30T04:22:54.411Z,3.72
2023-03-30T04:25:22.733Z,5.05
2023-03-30T04:27:52.829Z,5.75
2023-03-30T04:30:19.496Z,5.75
2023-03-30T04:32:47.152Z,3.55
2023-03-30T04:35:14.388Z,5.93
2023-03-30T04:37:42.327Z,4.32
2023-03-30T04:40:13.189Z,5.70
2023-03-30T04:42:40.074Z,5.22
2023-03-30T04:45:07.308Z,5.35
2023-03-30T04:47:34.053Z,6.10
2023-03-30T04:50:01.231Z,5.50
2023-03-30T04:52:27.893Z,5.30
2023-03-30T04:54:54.520Z,4.70
2023-03-30T04:57:21.246Z,4.90
2023-03-30T04:59:48.012Z,6.03
2023-03-30T05:02:16.262Z,6.57
2023-03-30T05:04:43.150Z,6.55
2023-03-30T05:07:09.767Z,7.60
2023-03-30T05:09:36.481Z,5.07
2023-03-30T05:12:04.703Z,5.00
2023-03-30T05:14:31.305Z,6.78
2023-03-30T05:16:58.816Z,5.07
2023-03-30T05:19:25.720Z,6.78
2023-03-30T05:21:52.393Z,5.82
2023-03-30T05:24:19.126Z,6.10
2023-03-30T05:26:45.746Z,5.45
2023-03-30T05:29:12.477Z,5.25
2023-03-30T05:31:39.908Z,6.15
2023-03-30T05:34:06.711Z,7.78
2023-03-30T05:36:35.331Z,5.85
2023-03-30T05:39:05.011Z,6.40
2023-03-30T05:41:31.847Z,7.50
2023-03-30T05:43:58.522Z,7.30
2023-03-30T05:46:25.125Z,7.60
2023-03-30T05:48:51.814Z,6.38
2023-03-30T05:51:18.538Z,7.53
2023-03-30T05:53:46.016Z,9.63
2023-03-30T05:56:12.686Z,10.85
2023-03-30T05:58:39.368Z,8.10
2023-03-30T06:01:06.384Z,9.70
2023-03-30T06:03:33.367Z,8.40
2023-03-30T06:06:00.530Z,7.95
2023-03-30T06:08:27.494Z,8.25
2023-03-30T06:10:54.153Z,6.75
2023-03-30T06:13:20.910Z,8.63
2023-03-30T06:15:47.588Z,6.68
2023-03-30T06:18:14.418Z,7.10
2023-03-30T06:20:41.132Z,8.82
2023-03-30T06:23:07.704Z,8.07
2023-03-30T06:25:34.358Z,7.65
2023-03-30T06:28:01.227Z,7.53
2023-03-30T06:30:28.033Z,10.23
2023-03-30T06:32:55.024Z,8.07
2023-03-30T06:35:22.565Z,8.43
2023-03-30T06:37:49.327Z,6.13
2023-03-30T06:40:16.155Z,9.70
2023-03-30T06:42:44.423Z,9.32
2023-03-30T06:45:11.252Z,7.90
2023-03-30T06:47:38.221Z,9.25
2023-03-30T06:50:04.926Z,8.88
2023-03-30T06:52:31.541Z,8.02
2023-03-30T06:54:58.181Z,7.43
2023-03-30T06:57:24.925Z,8.52
2023-03-30T06:59:52.028Z,8.60
2023-03-30T07:02:18.648Z,7.32
2023-03-30T07:04:47.029Z,8.88
2023-03-30T07:07:13.894Z,6.40
2023-03-30T07:09:40.504Z,4.97
2023-03-30T07:12:07.185Z,6.57
2023-03-30T07:14:33.846Z,5.85
2023-03-30T07:17:00.628Z,7.80
2023-03-30T07:19:27.285Z,7.75
2023-03-30T07:21:53.982Z,7.25
2023-03-30T07:24:20.728Z,7.43
2023-03-30T07:26:47.498Z,7.75
2023-03-30T07:29:15.648Z,8.85
2023-03-30T07:31:42.514Z,8.30
2023-03-30T07:34:09.438Z,8.02
2023-03-30T07:36:36.078Z,6.53
2023-03-30T07:39:02.971Z,6.35
2023-03-30T07:41:29.870Z,7.78
2023-03-30T07:43:56.526Z,8.68
2023-03-30T07:46:23.150Z,6.93
2023-03-30T07:48:49.840Z,7.53
2023-03-30T07:51:16.531Z,8.02
2023-03-30T07:53:43.801Z,8.27
2023-03-30T07:56:10.732Z,6.95
2023-03-30T07:58:37.638Z,7.28
2023-03-30T08:01:05.156Z,6.05
2023-03-30T08:03:32.339Z,6.38
2023-03-30T08:06:00.751Z,10.15
2023-03-30T08:08:27.692Z,8.13
2023-03-30T08:10:54.291Z,6.05
2023-03-30T08:13:22.126Z,6.95
2023-03-30T08:15:48.876Z,7.47
2023-03-30T08:18:15.512Z,5.97
2023-03-30T08:20:42.096Z,7.18
2023-03-30T08:23:08.738Z,7.18
2023-03-30T08:25:35.482Z,8.57
2023-03-30T08:28:02.271Z,6.90
2023-03-30T08:30:28.863Z,6.03
2023-03-30T08:32:55.708Z,7.15
2023-03-30T08:35:23.864Z,6.18
2023-03-30T08:37:50.952Z,7.68
2023-03-30T08:40:19.313Z,6.28
2023-03-30T08:42:47.536Z,6.90
2023-03-30T08:45:14.180Z,7.00
2023-03-30T08:47:42.078Z,7.15
2023-03-30T08:50:09.578Z,7.28
2023-03-30T08:52:36.941Z,8.77
2023-03-30T08:55:04.589Z,7.18
2023-03-30T08:57:31.587Z,6.55
2023-03-30T08:59:58.288Z,6.80
2023-03-30T09:02:25.258Z,6.65
2023-03-30T09:04:57.358Z,9.43
2023-03-30T09:07:24.427Z,6.97
2023-03-30T09:09:52.249Z,6.68
2023-03-30T09:12:19.379Z,7.07
2023-03-30T09:14:46.465Z,6.40
2023-03-30T09:17:13.515Z,7.43
2023-03-30T09:19:40.251Z,6.57
2023-03-30T09:22:07.285Z,7.25
2023-03-30T09:24:34.272Z,8.02
2023-03-30T09:27:01.298Z,5.70
2023-03-30T09:29:28.212Z,6.90
2023-03-30T09:31:54.883Z,6.50
2023-03-30T09:34:21.507Z,6.45
2023-03-30T09:36:48.532Z,6.60
2023-03-30T09:39:15.800Z,6.65
2023-03-30T09:41:42.756Z,7.18
2023-03-30T09:44:09.754Z,6.88
2023-03-30T09:46:37.341Z,8.35
2023-03-30T09:49:05.076Z,5.22
2023-03-30T09:51:32.081Z,6.95
2023-03-30T09:53:59.039Z,7.30
2023-03-30T09:56:26.627Z,7.22
2023-03-30T09:58:53.628Z,8.13
2023-03-30T10:01:20.772Z,6.55
2023-03-30T10:03:48.008Z,7.65
2023-03-30T10:06:16.328Z,7.25
2023-03-30T10:08:43.432Z,7.28
2023-03-30T10:11:12.907Z,5.30
2023-03-30T10:13:39.922Z,14.13
2023-03-30T10:16:07.290Z,5.80
2023-03-30T10:18:34.548Z,7.35
2023-03-30T10:21:01.584Z,7.80
2023-03-30T10:23:30.796Z,5.15
2023-03-30T10:25:58.475Z,7.00
2023-03-30T10:28:25.466Z,6.45
2023-03-30T10:30:52.427Z,6.82
2023-03-30T10:33:19.452Z,6.45
2023-03-30T10:35:46.566Z,6.82
2023-03-30T10:38:13.620Z,6.65
2023-03-30T10:40:41.223Z,6.43
2023-03-30T10:43:08.905Z,7.05
2023-03-30T10:45:35.952Z,5.85
2023-03-30T10:48:03.111Z,6.57
2023-03-30T10:50:30.122Z,6.35
2023-03-30T10:52:59.319Z,5.88
2023-03-30T10:55:26.888Z,4.30
2023-03-30T10:57:54.600Z,6.63
2023-03-30T11:00:22.347Z,6.68
2023-03-30T11:02:49.620Z,7.25
2023-03-30T11:05:17.192Z,6.53
2023-03-30T11:07:44.169Z,7.00
2023-03-30T11:10:13.904Z,6.57
2023-03-30T11:12:40.867Z,7.07
2023-03-30T11:15:07.932Z,6.47
2023-03-30T11:17:35.097Z,8.02
2023-03-30T11:20:05.954Z,5.80
2023-03-30T11:22:33.620Z,7.05
2023-03-30T11:25:00.720Z,7.53
2023-03-30T11:27:29.669Z,7.65
2023-03-30T11:29:56.751Z,8.35
2023-03-30T11:32:23.577Z,9.30
2023-03-30T11:34:50.360Z,6.53
2023-03-30T11:37:17.139Z,8.50
2023-03-30T11:39:43.760Z,6.13
2023-03-30T11:42:10.359Z,6.40
2023-03-30T11:44:37.034Z,5.00
2023-03-30T11:47:03.621Z,6.20
2023-03-30T11:49:30.313Z,5.30
2023-03-30T11:51:57.049Z,4.65
2023-03-30T11:54:23.723Z,5.57
2023-03-30T11:56:50.414Z,4.85
2023-03-30T11:59:17.286Z,4.15
2023-03-30T12:01:43.889Z,5.35
2023-03-30T12:04:10.848Z,5.38
2023-03-30T12:06:37.624Z,4.10
2023-03-30T12:09:05.015Z,4.82
2023-03-30T12:11:31.628Z,4.70
2023-03-30T12:13:58.248Z,4.93
2023-03-30T12:16:26.901Z,4.30
2023-03-30T12:18:54.954Z,5.47
2023-03-30T12:21:21.616Z,5.22
2023-03-30T12:23:48.288Z,6.18
2023-03-30T12:26:14.908Z,5.47
2023-03-30T12:28:54.309Z,5.57
2023-03-30T12:31:28.333Z,5.85
2023-03-30T12:33:55.003Z,5.00
2023-03-30T12:36:26.234Z,6.55
2023-03-30T12:38:52.853Z,5.50
2023-03-30T12:41:20.682Z,4.85
2023-03-30T12:43:47.394Z,5.05
2023-03-30T12:46:20.053Z,5.68
2023-03-30T12:48:46.952Z,4.60
2023-03-30T12:51:13.675Z,4.97
2023-03-30T12:53:40.765Z,6.75
2023-03-30T12:56:07.988Z,6.43
2023-03-30T12:58:37.071Z,5.68
2023-03-30T13:01:03.936Z,4.80
2023-03-30T13:03:31.660Z,5.70
2023-03-30T13:05:58.421Z,6.80
2023-03-30T13:08:28.005Z,5.97
2023-03-30T13:10:57.534Z,5.60
2023-03-30T13:13:25.431Z,5.57
2023-03-30T13:15:55.292Z,5.30
2023-03-30T13:18:22.015Z,3.97
2023-03-30T13:20:49.168Z,5.20
2023-03-30T13:23:16.311Z,6.07
2023-03-30T13:25:47.079Z,4.85
2023-03-30T13:28:17.675Z,4.30
2023-03-30T13:30:44.428Z,7.55
2023-03-30T13:33:14.912Z,4.35
2023-03-30T13:35:44.365Z,4.72
2023-03-30T13:38:14.041Z,5.63
2023-03-30T13:40:46.475Z,5.43
2023-03-30T13:43:30.471Z,4.50
2023-03-30T13:46:09.212Z,5.22
2023-03-30T13:48:40.568Z,4.10
2023-03-30T13:51:12.923Z,4.43
2023-03-30T13:53:39.935Z,4.38
2023-03-30T13:56:09.303Z,5.40
2023-03-30T13:58:36.012Z,4.82
2023-03-30T14:01:03.130Z,6.18
2023-03-30T14:03:30.571Z,4.88
2023-03-30T14:05:57.783Z,6.70
2023-03-30T14:08:25.415Z,5.72
2023-03-30T14:13:49.427Z,4.55
2023-03-30T14:16:16.289Z,4.95
2023-03-30T14:18:46.398Z,4.95
2023-03-30T14:21:13.304Z,5.68
2023-03-30T14:23:41.236Z,5.05
2023-03-30T14:26:08.175Z,5.70
2023-03-30T14:28:34.791Z,4.68
2023-03-30T14:31:04.805Z,5.20
2023-03-30T14:33:32.926Z,3.72
2023-03-30T14:35:59.751Z,5.28
2023-03-30T14:38:26.580Z,5.60
2023-03-30T14:40:53.307Z,5.47
2023-03-30T14:43:19.929Z,4.65
2023-03-30T14:45:46.622Z,5.10
2023-03-30T14:48:13.299Z,5.05
2023-03-30T14:50:39.949Z,4.05
2023-03-30T14:53:07.385Z,3.72
2023-03-30T14:55:34.440Z,4.22
2023-03-30T14:58:01.038Z,4.70
2023-03-30T15:00:28.954Z,3.63
2023-03-30T15:02:55.645Z,4.93
2023-03-30T15:05:22.451Z,3.97
2023-03-30T15:07:49.067Z,4.60
2023-03-30T15:10:15.985Z,5.60
2023-03-30T15:12:42.647Z,3.75
2023-03-30T15:15:09.423Z,4.35
2023-03-30T15:17:36.114Z,4.50
2023-03-30T15:20:03.271Z,4.22
2023-03-30T15:22:30.024Z,4.40
2023-03-30T15:24:56.622Z,4.95
2023-03-30T15:27:23.222Z,5.15
2023-03-30T15:29:49.839Z,4.93
2023-03-30T15:32:16.504Z,5.63
2023-03-30T15:34:43.147Z,4.38
2023-03-30T15:37:09.825Z,5.53
2023-03-30T15:39:36.601Z,4.97
2023-03-30T15:42:04.519Z,5.25
2023-03-30T15:44:31.133Z,6.65
2023-03-30T15:46:57.778Z,5.18
2023-03-30T15:49:24.847Z,5.22
2023-03-30T15:51:51.982Z,4.30
2023-03-30T15:54:18.599Z,4.55
2023-03-30T15:56:45.356Z,5.40
2023-03-30T15:59:12.189Z,4.72
2023-03-30T16:01:38.804Z,4.88
2023-03-30T16:04:05.429Z,4.88
2023-03-30T16:06:32.069Z,3.95
2023-03-30T16:08:58.699Z,4.88
2023-03-30T16:11:25.333Z,4.55
2023-03-30T16:13:51.919Z,4.72
2023-03-30T16:16:18.703Z,3.92
2023-03-30T16:18:45.381Z,4.47
2023-03-30T16:21:12.476Z,4.82
2023-03-30T16:23:39.181Z,5.75
2023-03-30T16:26:08.152Z,5.43
2023-03-30T16:28:34.804Z,4.80
2023-03-30T16:31:01.376Z,6.22
2023-03-30T16:33:28.053Z,6.80
2023-03-30T16:35:54.737Z,4.70
2023-03-30T16:38:21.445Z,5.22
2023-03-30T16:40:48.064Z,6.32
2023-03-30T16:43:14.888Z,5.45
2023-03-30T16:45:41.609Z,4.97
2023-03-30T16:48:08.190Z,4.13
2023-03-30T16:50:34.819Z,4.45
2023-03-30T16:53:01.480Z,5.13
2023-03-30T16:55:28.166Z,4.50
2023-03-30T16:57:54.841Z,4.43
2023-03-30T17:00:21.577Z,4.45
2023-03-30T17:02:48.260Z,5.30
2023-03-30T17:05:14.869Z,5.47
2023-03-30T17:07:41.496Z,4.97
2023-03-30T17:10:08.245Z,5.05
2023-03-30T17:12:34.866Z,5.80
2023-03-30T17:15:01.500Z,6.38
2023-03-30T17:17:28.154Z,6.60
2023-03-30T17:19:55.126Z,5.82
2023-03-30T17:22:21.785Z,6.15
2023-03-30T17:24:48.469Z,7.57
2023-03-30T17:27:16.780Z,6.55
2023-03-30T17:29:43.478Z,6.68
2023-03-30T17:32:12.406Z,7.45
2023-03-30T17:34:39.114Z,6.35
2023-03-30T17:37:05.823Z,7.45
2023-03-30T17:39:33.558Z,6.22
2023-03-30T17:42:00.582Z,6.38
2023-03-30T17:44:28.119Z,6.60
2023-03-30T17:46:54.969Z,8.10
2023-03-30T17:49:21.907Z,8.85
2023-03-30T17:51:49.648Z,8.52
2023-03-30T17:54:18.871Z,9.10
2023-03-30T17:56:51.075Z,8.38
2023-03-30T17:59:17.746Z,7.78
2023-03-30T18:01:44.577Z,6.10
2023-03-30T18:04:11.376Z,7.55
2023-03-30T18:06:38.104Z,6.82
2023-03-30T18:09:04.805Z,6.43
2023-03-30T18:11:31.479Z,7.60
2023-03-30T18:13:58.135Z,6.28
2023-03-30T18:16:27.598Z,5.97
2023-03-30T18:18:56.257Z,6.72
2023-03-30T18:21:24.942Z,6.75
2023-03-30T18:23:52.083Z,6.88
2023-03-30T18:26:18.682Z,7.60
2023-03-30T18:28:46.546Z,5.95
2023-03-30T18:31:13.429Z,6.45
2023-03-30T18:33:40.304Z,8.40
2023-03-30T18:36:08.364Z,6.95
2023-03-30T18:38:38.635Z,7.18
2023-03-30T18:41:05.310Z,6.28
2023-03-30T18:43:31.931Z,8.15
2023-03-30T18:46:01.847Z,7.30
2023-03-30T18:48:29.089Z,7.82
2023-03-30T18:50:55.746Z,7.30
2023-03-30T18:53:22.439Z,6.85
2023-03-30T18:55:49.189Z,6.90
2023-03-30T18:58:16.037Z,8.63
2023-03-30T19:00:42.792Z,7.10
2023-03-30T19:03:09.655Z,5.22
2023-03-30T19:05:36.435Z,7.07
2023-03-30T19:08:03.133Z,7.95
2023-03-30T19:10:29.876Z,7.03
2023-03-30T19:12:56.689Z,10.23
2023-03-30T19:15:23.387Z,8.15
2023-03-30T19:17:50.300Z,10.52
2023-03-30T19:20:17.215Z,6.15
2023-03-30T19:22:43.909Z,6.97
2023-03-30T19:25:10.595Z,6.28
2023-03-30T19:27:37.460Z,7.07
2023-03-30T19:30:04.606Z,7.97
2023-03-30T19:32:31.356Z,9.55
2023-03-30T19:34:58.069Z,8.85
2023-03-30T19:37:25.039Z,6.47
2023-03-30T19:39:51.869Z,8.38
2023-03-30T19:42:18.487Z,7.90
2023-03-30T19:44:45.226Z,7.30
2023-03-30T19:47:12.067Z,7.57
2023-03-30T19:49:39.263Z,6.53
2023-03-30T19:52:06.072Z,7.53
2023-03-30T19:54:32.696Z,6.18
2023-03-30T19:56:59.451Z,6.95
2023-03-30T19:59:28.681Z,7.20
2023-03-30T20:01:57.907Z,7.65
2023-03-30T20:04:25.288Z,7.47
2023-03-30T20:06:51.956Z,7.07
2023-03-30T20:09:20.058Z,6.38
2023-03-30T20:11:47.728Z,8.43
2023-03-30T20:14:14.607Z,7.53
2023-03-30T20:16:41.616Z,7.28
2023-03-30T20:19:22.392Z,7.93
2023-03-30T20:21:56.457Z,8.13
2023-03-30T20:24:23.711Z,9.00
2023-03-30T20:26:50.691Z,6.15
2023-03-30T20:29:17.401Z,8.13
2023-03-30T20:31:45.807Z,7.57
2023-03-30T20:34:14.597Z,7.03
2023-03-30T20:36:41.738Z,7.55
2023-03-30T20:39:09.602Z,6.10
2023-03-30T20:41:43.190Z,6.57
2023-03-30T20:44:11.772Z,7.05
2023-03-30T20:46:38.491Z,7.57
2023-03-30T20:49:05.261Z,10.40
2023-03-30T20:51:32.595Z,10.25
2023-03-30T20:53:59.779Z,7.95
2023-03-30T20:56:30.916Z,6.95
2023-03-30T20:58:58.143Z,9.05
2023-03-30T21:01:30.686Z,9.35
2023-03-30T21:03:58.060Z,8.90
2023-03-30T21:06:25.294Z,5.78
2023-03-30T21:08:52.268Z,10.13
2023-03-30T21:11:18.989Z,8.27
2023-03-30T21:13:46.560Z,9.45
2023-03-30T21:16:13.433Z,8.75
2023-03-30T21:18:41.202Z,9.25
2023-03-30T21:21:07.983Z,8.48
2023-03-30T21:23:35.102Z,7.60
2023-03-30T21:26:09.739Z,8.85
2023-03-30T21:28:41.879Z,7.30
2023-03-30T21:31:09.121Z,4.75
2023-03-30T21:33:36.081Z,5.28
2023-03-30T21:36:03.278Z,3.80
2023-03-30T21:38:30.991Z,6.20
2023-03-30T21:40:57.866Z,3.90
2023-03-30T21:43:27.872Z,3.72
2023-03-30T21:45:54.549Z,3.42
2023-03-30T21:48:21.514Z,2.88
2023-03-30T21:50:54.228Z,3.35
2023-03-30T21:53:20.929Z,4.03
2023-03-30T21:55:48.198Z,3.45
2023-03-30T21:58:14.936Z,4.80
2023-03-30T22:00:41.556Z,3.03
2023-03-30T22:03:08.398Z,3.38
2023-03-30T22:05:35.356Z,3.15
2023-03-30T22:08:02.684Z,3.17
2023-03-30T22:10:29.556Z,2.55
2023-03-30T22:12:56.484Z,5.50
2023-03-30T22:15:23.435Z,4.50
2023-03-30T22:17:50.389Z,2.85
2023-03-30T22:20:17.153Z,2.92
2023-03-30T22:22:43.745Z,4.15
2023-03-30T22:25:10.395Z,3.63
2023-03-30T22:27:37.339Z,3.92
2023-03-30T22:30:03.966Z,2.45
2023-03-30T22:32:30.895Z,3.10
2023-03-30T22:34:57.560Z,4.10
2023-03-30T22:37:24.624Z,3.88
2023-03-30T22:39:51.429Z,4.53
2023-03-30T22:42:18.046Z,5.05
2023-03-30T22:44:44.804Z,5.03
2023-03-30T22:47:11.968Z,4.47
2023-03-30T22:49:40.461Z,2.83
2023-03-30T22:52:07.319Z,4.18
2023-03-30T22:54:33.936Z,4.80
2023-03-30T22:57:00.897Z,3.83
2023-03-30T22:59:27.658Z,5.18
2023-03-30T23:01:54.252Z,6.13
2023-03-30T23:04:20.817Z,3.53
2023-03-30T23:06:48.024Z,3.88
2023-03-30T23:09:14.691Z,3.45
2023-03-30T23:11:42.597Z,3.47
2023-03-30T23:14:09.304Z,4.75
2023-03-30T23:16:37.552Z,3.88
2023-03-30T23:19:04.640Z,3.88
2023-03-30T23:21:34.111Z,4.82
2023-03-30T23:24:01.966Z,5.05
2023-03-30T23:26:28.955Z,5.53
2023-03-30T23:28:56.209Z,4.40
2023-03-30T23:31:22.974Z,4.28
2023-03-30T23:33:52.230Z,4.72
2023-03-30T23:36:19.324Z,5.68
2023-03-30T23:38:46.201Z,4.57
2023-03-30T23:41:12.872Z,4.00
2023-03-30T23:43:39.480Z,4.43
2023-03-30T23:46:06.392Z,3.28
2023-03-30T23:48:33.237Z,3.42
2023-03-30T23:50:59.949Z,4.07
2023-03-30T23:53:26.925Z,3.70
2023-03-30T23:55:53.702Z,4.47
2023-03-30T23:58:20.367Z,4.10
